createdAt,value
2018-04-07T00:00:18.977Z,3.20
2018-04-07T00:02:47.187Z,5.40
2018-04-07T00:05:14.620Z,4.57
2018-04-07T00:07:42.049Z,4.07
2018-04-07T00:10:09.501Z,4.07
2018-04-07T00:12:36.942Z,3.23
2018-04-07T00:15:04.385Z,4.63
2018-04-07T00:17:31.833Z,4.67
2018-04-07T00:19:59.285Z,3.67
2018-04-07T00:22:26.716Z,4.23
2018-04-07T00:24:54.921Z,3.70
2018-04-07T00:27:22.363Z,5.20
2018-04-07T00:29:49.817Z,8.00
2018-04-07T00:32:17.249Z,3.20
2018-04-07T00:34:45.444Z,6.00
2018-04-07T00:37:12.885Z,2.90
2018-04-07T00:39:41.082Z,3.23
2018-04-07T00:42:08.525Z,2.90
2018-04-07T00:44:35.958Z,2.50
2018-04-07T00:47:03.405Z,2.63
2018-04-07T00:49:30.837Z,6.87
2018-04-07T00:51:58.292Z,4.40
2018-04-07T00:54:25.729Z,5.43
2018-04-07T00:56:53.159Z,3.60
2018-04-07T00:59:21.370Z,3.87
2018-04-07T01:01:48.812Z,3.33
2018-04-07T01:04:16.270Z,3.93
2018-04-07T01:06:43.720Z,5.57
2018-04-07T01:09:11.169Z,6.43
2018-04-07T01:11:39.378Z,4.60
2018-04-07T01:14:06.923Z,4.93
2018-04-07T01:16:34.391Z,5.47
2018-04-07T01:19:01.846Z,5.33
2018-04-07T01:21:29.298Z,3.90
2018-04-07T01:23:56.841Z,5.47
2018-04-07T01:26:24.284Z,3.00
2018-04-07T01:28:52.498Z,4.57
2018-04-07T01:31:19.941Z,6.80
2018-04-07T01:33:47.583Z,3.20
2018-04-07T01:36:15.803Z,3.60
2018-04-07T01:38:43.244Z,7.20
2018-04-07T01:41:10.689Z,4.13
2018-04-07T01:43:39.159Z,4.20
2018-04-07T01:46:07.403Z,8.20
2018-04-07T01:48:34.821Z,7.53
2018-04-07T01:51:02.285Z,6.10
2018-04-07T01:53:29.730Z,7.27
2018-04-07T01:55:57.256Z,4.80
2018-04-07T01:58:25.470Z,4.73
2018-04-07T02:00:52.952Z,4.20
2018-04-07T02:03:20.405Z,5.03
2018-04-07T02:05:47.864Z,8.90
2018-04-07T02:08:15.306Z,4.43
2018-04-07T02:10:42.767Z,8.90
2018-04-07T02:13:10.209Z,5.60
2018-04-07T02:15:37.629Z,4.30
2018-04-07T02:18:05.863Z,4.00
2018-04-07T02:20:33.311Z,3.80
2018-04-07T02:23:00.761Z,5.93
2018-04-07T02:25:28.213Z,4.97
2018-04-07T02:27:55.650Z,4.57
2018-04-07T02:30:23.094Z,11.97
2018-04-07T02:32:51.310Z,7.57
2018-04-07T02:35:18.777Z,11.80
2018-04-07T02:37:46.212Z,4.60
2018-04-07T02:40:13.663Z,7.90
2018-04-07T02:42:41.099Z,5.13
2018-04-07T02:45:09.320Z,4.53
2018-04-07T02:47:36.769Z,4.63
2018-04-07T02:50:04.219Z,7.33
2018-04-07T02:52:31.673Z,7.00
2018-04-07T02:54:59.125Z,9.23
2018-04-07T02:57:26.572Z,4.70
2018-04-07T02:59:54.014Z,7.70
2018-04-07T03:02:22.242Z,7.83
2018-04-07T03:04:49.683Z,7.90
2018-04-07T03:07:17.132Z,9.90
2018-04-07T03:09:44.580Z,8.47
2018-04-07T03:12:12.011Z,5.10
2018-04-07T03:14:40.232Z,7.60
2018-04-07T03:17:07.688Z,9.07
2018-04-07T03:19:35.139Z,12.37
2018-04-07T03:22:02.572Z,6.23
2018-04-07T03:24:30.799Z,4.90
2018-04-07T03:26:58.241Z,6.60
2018-04-07T03:29:25.687Z,7.40
2018-04-07T03:31:53.117Z,6.50
2018-04-07T03:34:21.342Z,8.10
2018-04-07T03:36:48.888Z,7.03
2018-04-07T03:39:16.341Z,7.43
2018-04-07T03:41:43.775Z,6.00
2018-04-07T03:44:11.217Z,6.03
2018-04-07T03:46:39.426Z,7.90
2018-04-07T03:49:06.873Z,3.13
2018-04-07T03:51:34.314Z,7.50
2018-04-07T03:54:02.521Z,6.40
2018-04-07T03:56:29.952Z,8.77
2018-04-07T03:58:57.399Z,7.03
2018-04-07T04:01:24.850Z,7.20
2018-04-07T04:03:53.073Z,8.73
2018-04-07T04:06:20.539Z,10.43
2018-04-07T04:08:48.049Z,6.80
2018-04-07T04:11:16.318Z,8.07
2018-04-07T04:13:44.517Z,5.50
2018-04-07T04:16:11.982Z,6.77
2018-04-07T04:18:39.413Z,6.77
2018-04-07T04:21:07.632Z,8.33
2018-04-07T04:23:35.077Z,6.27
2018-04-07T04:26:02.528Z,9.10
2018-04-07T04:28:29.963Z,7.60
2018-04-07T04:30:58.225Z,7.23
2018-04-07T04:33:26.445Z,6.43
2018-04-07T04:35:53.892Z,6.00
2018-04-07T04:38:21.339Z,8.13
2018-04-07T04:40:48.795Z,5.73
2018-04-07T04:43:16.243Z,8.83
2018-04-07T04:45:44.457Z,4.67
2018-04-07T04:48:11.972Z,7.40
2018-04-07T04:50:40.253Z,10.47
2018-04-07T04:53:08.468Z,5.70
2018-04-07T04:55:35.915Z,5.30
2018-04-07T04:58:03.352Z,9.10
2018-04-07T05:00:30.780Z,8.63
2018-04-07T05:02:59.001Z,5.23
2018-04-07T05:05:26.460Z,6.57
2018-04-07T05:07:53.966Z,4.33
2018-04-07T05:10:21.406Z,7.47
2018-04-07T05:12:48.856Z,5.30
2018-04-07T05:15:16.315Z,5.73
2018-04-07T05:17:43.773Z,7.30
2018-04-07T05:20:11.225Z,5.70
2018-04-07T05:22:38.687Z,4.47
2018-04-07T05:25:06.107Z,8.23
2018-04-07T05:27:33.548Z,7.40
2018-04-07T05:30:01.763Z,6.43
2018-04-07T05:32:29.208Z,8.63
2018-04-07T05:34:56.645Z,7.40
2018-04-07T05:37:24.104Z,4.83
2018-04-07T05:39:51.545Z,7.30
2018-04-07T05:42:19.812Z,8.43
2018-04-07T05:44:47.237Z,9.33
2018-04-07T05:47:14.706Z,12.40
2018-04-07T05:49:42.198Z,6.37
2018-04-07T05:52:10.465Z,6.73
2018-04-07T05:54:38.743Z,5.80
2018-04-07T05:57:06.960Z,9.53
2018-04-07T05:59:34.419Z,8.80
2018-04-07T06:02:01.873Z,8.00
2018-04-07T06:04:29.337Z,8.30
2018-04-07T06:06:56.775Z,10.77
2018-04-07T06:09:24.225Z,8.70
2018-04-07T06:11:51.666Z,10.77
2018-04-07T06:14:20.028Z,10.43
2018-04-07T06:16:47.476Z,10.80
2018-04-07T06:19:14.973Z,7.07
2018-04-07T06:21:42.410Z,12.53
2018-04-07T06:24:10.626Z,8.60
2018-04-07T06:26:38.071Z,8.60
2018-04-07T06:29:05.516Z,8.20
2018-04-07T06:31:32.948Z,7.20
2018-04-07T06:34:00.405Z,6.20
2018-04-07T06:36:27.877Z,5.90
2018-04-07T06:38:56.088Z,9.80
2018-04-07T06:41:23.551Z,8.13
2018-04-07T06:43:50.999Z,8.73
2018-04-07T06:46:18.450Z,7.27
2018-04-07T06:48:45.900Z,7.93
2018-04-07T06:51:13.341Z,11.20
2018-04-07T06:53:41.558Z,9.77
2018-04-07T06:56:09.072Z,9.20
2018-04-07T06:58:36.601Z,10.33
2018-04-07T07:01:04.059Z,11.07
2018-04-07T07:03:31.505Z,8.27
2018-04-07T07:05:59.043Z,7.97
2018-04-07T07:08:26.473Z,9.17
2018-04-07T07:10:53.933Z,9.00
2018-04-07T07:13:21.376Z,9.43
2018-04-07T07:15:49.592Z,11.63
2018-04-07T07:18:17.100Z,8.40
2018-04-07T07:20:44.535Z,11.10
2018-04-07T07:23:12.037Z,11.53
2018-04-07T07:25:39.491Z,8.50
2018-04-07T07:28:07.710Z,8.90
2018-04-07T07:30:35.147Z,12.10
2018-04-07T07:33:02.607Z,9.93
2018-04-07T07:35:30.056Z,9.97
2018-04-07T07:37:57.609Z,8.73
2018-04-07T07:40:25.049Z,7.87
2018-04-07T07:42:53.262Z,7.60
2018-04-07T07:45:20.852Z,15.00
2018-04-07T07:47:48.417Z,7.70
2018-04-07T07:50:15.871Z,10.40
2018-04-07T07:52:43.325Z,8.90
2018-04-07T07:55:10.779Z,10.00
2018-04-07T07:57:38.246Z,13.57
2018-04-07T08:00:05.700Z,9.47
2018-04-07T08:02:33.147Z,7.63
2018-04-07T08:05:00.598Z,9.57
2018-04-07T08:07:28.054Z,8.13
2018-04-07T08:09:55.510Z,9.03
2018-04-07T08:12:22.962Z,11.33
2018-04-07T08:14:50.419Z,9.17
2018-04-07T08:17:17.863Z,9.87
2018-04-07T08:19:45.305Z,9.80
2018-04-07T08:22:12.757Z,14.77
2018-04-07T08:24:40.238Z,9.50
2018-04-07T08:27:07.706Z,13.87
2018-04-07T08:29:35.160Z,20.73
2018-04-07T08:32:02.671Z,9.37
2018-04-07T08:34:30.074Z,7.90
2018-04-07T08:36:57.535Z,16.80
2018-04-07T08:39:25.055Z,9.63
2018-04-07T08:41:52.448Z,12.70
2018-04-07T08:44:19.907Z,8.17
2018-04-07T08:46:47.376Z,10.63
2018-04-07T08:49:14.822Z,13.20
2018-04-07T08:51:42.293Z,11.20
2018-04-07T08:54:09.738Z,9.43
2018-04-07T08:56:37.193Z,9.30
2018-04-07T08:59:04.643Z,15.47
2018-04-07T09:01:32.100Z,11.07
2018-04-07T09:03:59.554Z,12.60
2018-04-07T09:06:27.034Z,7.97
2018-04-07T09:08:54.504Z,12.10
2018-04-07T09:11:21.966Z,12.53
2018-04-07T09:13:49.424Z,15.97
2018-04-07T09:16:16.888Z,11.20
2018-04-07T09:18:48.728Z,9.30
2018-04-07T09:21:16.954Z,11.33
2018-04-07T09:23:44.397Z,11.30
2018-04-07T09:26:12.622Z,14.90
2018-04-07T09:28:40.073Z,12.63
2018-04-07T09:31:13.218Z,13.53
2018-04-07T09:33:41.615Z,12.33
2018-04-07T09:36:09.072Z,11.00
2018-04-07T09:38:36.516Z,13.83
2018-04-07T09:41:04.781Z,12.90
2018-04-07T09:43:32.242Z,13.30
2018-04-07T09:45:59.751Z,9.57
2018-04-07T09:48:27.222Z,13.00
2018-04-07T09:50:54.746Z,14.97
2018-04-07T09:53:22.139Z,12.83
2018-04-07T09:55:49.600Z,12.80
2018-04-07T09:58:17.087Z,11.87
2018-04-07T10:00:47.460Z,14.93
2018-04-07T10:03:20.559Z,12.60
2018-04-07T10:05:47.999Z,14.70
2018-04-07T10:08:15.475Z,11.50
2018-04-07T10:10:42.922Z,13.50
2018-04-07T10:13:10.378Z,9.30
2018-04-07T10:15:37.844Z,12.80
2018-04-07T10:18:05.308Z,15.47
2018-04-07T10:20:32.759Z,14.30
2018-04-07T10:23:00.228Z,16.53
2018-04-07T10:25:27.677Z,14.03
2018-04-07T10:27:55.135Z,14.07
2018-04-07T10:30:22.674Z,16.77
2018-04-07T10:32:50.131Z,13.23
2018-04-07T10:35:17.600Z,12.70
2018-04-07T10:37:45.059Z,15.43
2018-04-07T10:40:12.549Z,12.00
2018-04-07T10:42:39.978Z,16.33
2018-04-07T10:45:07.445Z,13.23
2018-04-07T10:47:34.902Z,15.87
2018-04-07T10:50:02.362Z,18.90
2018-04-07T10:52:29.862Z,10.40
2018-04-07T10:54:57.334Z,14.70
2018-04-07T10:57:25.550Z,11.90
2018-04-07T10:59:53.117Z,15.67
2018-04-07T11:02:20.565Z,13.30
2018-04-07T11:04:48.042Z,16.50
2018-04-07T11:07:15.498Z,13.90
2018-04-07T11:09:42.952Z,14.30
2018-04-07T11:12:10.417Z,19.33
2018-04-07T11:14:37.955Z,12.73
2018-04-07T11:17:05.401Z,14.40
2018-04-07T11:19:32.901Z,12.83
2018-04-07T11:22:00.346Z,13.90
2018-04-07T11:24:27.803Z,14.37
2018-04-07T11:26:55.257Z,15.10
2018-04-07T11:29:22.702Z,13.00
2018-04-07T11:31:50.160Z,10.43
2018-04-07T11:34:17.608Z,13.67
2018-04-07T11:36:45.891Z,11.40
2018-04-07T11:39:13.403Z,12.70
2018-04-07T11:41:42.605Z,17.70
2018-04-07T11:44:10.058Z,16.47
2018-04-07T11:46:38.285Z,15.47
2018-04-07T11:49:05.733Z,12.13
2018-04-07T11:51:33.186Z,12.57
2018-04-07T11:54:00.639Z,16.50
2018-04-07T11:56:28.090Z,16.07
2018-04-07T11:58:55.542Z,14.97
2018-04-07T12:01:22.998Z,18.50
2018-04-07T12:03:50.451Z,12.67
2018-04-07T12:06:17.889Z,12.30
2018-04-07T12:08:46.102Z,14.30
2018-04-07T12:11:15.586Z,13.37
2018-04-07T12:13:43.024Z,14.87
2018-04-07T12:16:11.253Z,14.30
2018-04-07T12:18:38.716Z,18.87
2018-04-07T12:21:06.161Z,12.83
2018-04-07T12:23:34.023Z,14.73
2018-04-07T12:26:01.469Z,12.53
2018-04-07T12:28:28.931Z,12.97
2018-04-07T12:30:56.371Z,14.67
2018-04-07T12:33:23.812Z,13.50
2018-04-07T12:35:52.053Z,14.90
2018-04-07T12:38:19.521Z,12.37
2018-04-07T12:40:46.975Z,14.63
2018-04-07T12:43:14.416Z,12.70
2018-04-07T12:45:41.875Z,14.90
2018-04-07T12:48:09.320Z,14.73
2018-04-07T12:50:36.774Z,15.40
2018-04-07T12:53:04.234Z,16.30
2018-04-07T12:55:31.679Z,15.80
2018-04-07T12:57:59.121Z,14.60
2018-04-07T13:00:26.569Z,13.97
2018-04-07T13:02:54.034Z,14.10
2018-04-07T13:05:21.493Z,12.13
2018-04-07T13:07:48.938Z,13.37
2018-04-07T13:10:17.145Z,12.33
2018-04-07T13:12:44.635Z,12.87
2018-04-07T13:15:12.056Z,11.00
2018-04-07T13:17:39.605Z,17.07
2018-04-07T13:20:08.993Z,12.37
2018-04-07T13:22:36.450Z,14.93
2018-04-07T13:25:03.905Z,12.83
2018-04-07T13:27:31.379Z,12.40
2018-04-07T13:29:58.823Z,11.10
2018-04-07T13:32:26.269Z,9.50
2018-04-07T13:34:54.493Z,11.70
2018-04-07T13:37:21.940Z,13.33
2018-04-07T13:39:49.398Z,14.93
2018-04-07T13:42:16.853Z,12.03
2018-04-07T13:44:44.302Z,11.87
2018-04-07T13:47:11.748Z,8.30
2018-04-07T13:49:39.230Z,9.03
2018-04-07T13:52:06.677Z,7.93
2018-04-07T13:54:34.135Z,11.47
2018-04-07T13:57:01.600Z,11.33
2018-04-07T13:59:29.058Z,10.77
2018-04-07T14:01:57.530Z,10.30
2018-04-07T14:04:25.030Z,10.27
2018-04-07T14:06:52.445Z,10.63
2018-04-07T14:09:19.910Z,8.60
2018-04-07T14:11:47.427Z,9.67
2018-04-07T14:14:15.703Z,5.70
2018-04-07T14:16:43.988Z,9.33
2018-04-07T14:19:11.401Z,3.43
2018-04-07T14:21:38.844Z,4.40
2018-04-07T14:24:07.070Z,5.10
2018-04-07T14:26:35.287Z,6.20
2018-04-07T14:29:02.746Z,6.93
2018-04-07T14:31:30.201Z,7.67
2018-04-07T14:33:57.655Z,7.57
2018-04-07T14:36:25.099Z,9.80
2018-04-07T14:38:52.563Z,11.33
2018-04-07T14:41:20.047Z,6.60
2018-04-07T14:43:47.489Z,7.77
2018-04-07T14:46:14.947Z,5.87
2018-04-07T14:48:42.410Z,6.43
2018-04-07T14:51:09.861Z,4.43
2018-04-07T14:53:37.310Z,4.33
2018-04-07T14:56:04.766Z,6.03
2018-04-07T14:58:32.215Z,7.70
2018-04-07T15:00:59.706Z,10.67
2018-04-07T15:03:27.153Z,8.53
2018-04-07T15:05:54.616Z,4.73
2018-04-07T15:08:22.062Z,5.30
2018-04-07T15:10:49.502Z,4.73
2018-04-07T15:13:16.946Z,4.77
2018-04-07T15:15:44.397Z,4.57
2018-04-07T15:18:11.901Z,4.27
2018-04-07T15:20:39.349Z,4.27
2018-04-07T15:23:06.800Z,4.17
2018-04-07T15:25:34.260Z,4.70
2018-04-07T15:28:01.745Z,4.50
2018-04-07T15:30:30.234Z,8.30
2018-04-07T15:32:57.771Z,7.50
2018-04-07T15:35:25.954Z,8.03
2018-04-07T15:37:53.459Z,5.90
2018-04-07T15:40:21.703Z,7.43
2018-04-07T15:42:49.167Z,7.33
2018-04-07T15:45:16.636Z,8.23
2018-04-07T15:47:44.853Z,6.67
2018-04-07T15:50:12.294Z,7.97
2018-04-07T15:52:39.750Z,4.77
2018-04-07T15:55:07.188Z,4.50
2018-04-07T15:57:35.477Z,4.63
2018-04-07T16:00:02.935Z,5.50
2018-04-07T16:02:30.385Z,5.40
2018-04-07T16:04:58.693Z,5.30
2018-04-07T16:07:26.141Z,7.23
2018-04-07T16:09:53.637Z,10.10
2018-04-07T16:12:21.159Z,9.87
2018-04-07T16:14:48.584Z,3.93
2018-04-07T16:17:16.801Z,7.27
2018-04-07T16:19:44.253Z,4.10
2018-04-07T16:22:11.712Z,7.50
2018-04-07T16:24:39.167Z,15.00
2018-04-07T16:27:06.626Z,13.47
2018-04-07T16:29:34.086Z,7.17
2018-04-07T16:32:01.542Z,7.70
2018-04-07T16:34:29.000Z,5.43
2018-04-07T16:36:56.460Z,10.93
2018-04-07T16:39:23.917Z,15.23
2018-04-07T16:41:51.370Z,4.20
2018-04-07T16:44:18.829Z,4.97
2018-04-07T16:46:46.288Z,4.60
2018-04-07T16:49:13.756Z,5.57
2018-04-07T16:51:41.202Z,6.80
2018-04-07T16:54:08.658Z,5.40
2018-04-07T16:56:36.115Z,3.30
2018-04-07T16:59:03.573Z,3.93
2018-04-07T17:01:31.035Z,3.80
2018-04-07T17:03:58.491Z,3.67
2018-04-07T17:06:25.946Z,3.77
2018-04-07T17:08:53.423Z,6.43
2018-04-07T17:11:20.908Z,4.70
2018-04-07T17:13:48.349Z,3.20
2018-04-07T17:16:15.871Z,4.97
2018-04-07T17:18:43.330Z,4.40
2018-04-07T17:21:10.776Z,4.97
2018-04-07T17:23:38.220Z,3.97
2018-04-07T17:26:05.684Z,3.30
2018-04-07T17:28:33.138Z,5.00
2018-04-07T17:31:00.590Z,4.60
2018-04-07T17:33:28.838Z,6.00
2018-04-07T17:35:56.268Z,8.57
2018-04-07T17:38:23.785Z,6.67
2018-04-07T17:40:51.230Z,5.13
2018-04-07T17:43:19.443Z,6.37
2018-04-07T17:45:46.904Z,10.43
2018-04-07T17:48:14.362Z,8.77
2018-04-07T17:50:41.821Z,7.73
2018-04-07T17:53:09.280Z,9.50
2018-04-07T17:55:36.729Z,8.60
2018-04-07T17:58:04.188Z,6.87
2018-04-07T18:00:32.401Z,12.80
2018-04-07T18:02:59.879Z,8.23
2018-04-07T18:05:28.095Z,5.60
2018-04-07T18:07:55.546Z,7.03
2018-04-07T18:10:23.015Z,10.87
2018-04-07T18:12:50.467Z,6.40
2018-04-07T18:15:17.936Z,4.40
2018-04-07T18:17:45.387Z,9.80
2018-04-07T18:20:12.847Z,3.87
2018-04-07T18:22:40.303Z,6.23
2018-04-07T18:25:07.791Z,7.10
2018-04-07T18:27:35.244Z,7.10
2018-04-07T18:30:02.821Z,5.13
2018-04-07T18:32:30.269Z,6.90
2018-04-07T18:34:57.767Z,6.93
2018-04-07T18:37:25.992Z,10.37
2018-04-07T18:39:53.455Z,6.80
2018-04-07T18:42:20.910Z,8.70
2018-04-07T18:44:48.354Z,6.60
2018-04-07T18:47:15.921Z,6.03
2018-04-07T18:49:43.366Z,8.07
2018-04-07T18:52:10.824Z,9.67
2018-04-07T18:54:38.302Z,5.87
2018-04-07T18:57:05.789Z,9.47
2018-04-07T18:59:34.003Z,5.60
2018-04-07T19:02:01.457Z,11.80
2018-04-07T19:04:28.908Z,7.73
2018-04-07T19:06:56.382Z,8.77
2018-04-07T19:09:23.829Z,9.00
2018-04-07T19:11:51.282Z,11.67
2018-04-07T19:14:18.744Z,12.10
2018-04-07T19:16:46.190Z,9.00
2018-04-07T19:19:13.659Z,9.03
2018-04-07T19:21:41.112Z,8.03
2018-04-07T19:24:08.560Z,7.23
2018-04-07T19:26:36.064Z,5.23
2018-04-07T19:29:03.512Z,7.73
2018-04-07T19:31:30.988Z,9.70
2018-04-07T19:33:58.470Z,8.83
2018-04-07T19:36:26.691Z,8.50
2018-04-07T19:38:54.215Z,7.00
2018-04-07T19:41:21.734Z,8.00
2018-04-07T19:43:49.890Z,10.40
2018-04-07T19:46:17.343Z,9.77
2018-04-07T19:48:44.801Z,9.50
2018-04-07T19:51:12.256Z,6.40
2018-04-07T19:53:39.686Z,6.57
2018-04-07T19:56:07.132Z,7.23
2018-04-07T19:58:34.625Z,7.10
2018-04-07T20:01:02.082Z,6.43
2018-04-07T20:03:29.525Z,10.03
2018-04-07T20:05:56.972Z,11.63
2018-04-07T20:08:24.427Z,7.13
2018-04-07T20:10:51.874Z,7.57
2018-04-07T20:13:20.081Z,8.30
2018-04-07T20:15:47.536Z,6.27
2018-04-07T20:18:14.991Z,9.57
2018-04-07T20:20:42.528Z,7.53
2018-04-07T20:23:09.982Z,5.77
2018-04-07T20:25:38.206Z,9.60
2018-04-07T20:28:05.665Z,7.83
2018-04-07T20:30:33.105Z,8.47
2018-04-07T20:33:00.564Z,4.77
2018-04-07T20:35:28.022Z,5.73
2018-04-07T20:37:55.592Z,4.20
2018-04-07T20:40:23.025Z,8.10
2018-04-07T20:42:50.487Z,8.27
2018-04-07T20:45:17.963Z,12.60
2018-04-07T20:47:45.412Z,6.27
2018-04-07T20:50:12.858Z,6.03
2018-04-07T20:52:41.144Z,6.80
2018-04-07T20:55:08.616Z,19.23
2018-04-07T20:57:36.090Z,5.23
2018-04-07T21:00:03.544Z,7.37
2018-04-07T21:02:31.003Z,5.97
2018-04-07T21:04:58.492Z,5.30
2018-04-07T21:07:26.709Z,6.40
2018-04-07T21:09:54.170Z,7.07
2018-04-07T21:12:21.632Z,5.17
2018-04-07T21:14:49.091Z,5.37
2018-04-07T21:17:16.538Z,7.20
2018-04-07T21:19:43.985Z,8.90
2018-04-07T21:22:11.430Z,6.90
2018-04-07T21:24:38.876Z,5.37
2018-04-07T21:27:06.315Z,9.83
2018-04-07T21:29:34.560Z,6.53
2018-04-07T21:32:01.993Z,6.73
2018-04-07T21:34:29.457Z,5.33
2018-04-07T21:36:56.914Z,12.23
2018-04-07T21:39:24.374Z,5.83
2018-04-07T21:41:51.829Z,8.73
2018-04-07T21:44:19.308Z,5.50
2018-04-07T21:46:46.762Z,8.20
2018-04-07T21:49:14.240Z,10.63
2018-04-07T21:51:41.660Z,7.17
2018-04-07T21:54:09.127Z,13.10
2018-04-07T21:56:36.579Z,7.13
2018-04-07T21:59:04.035Z,8.50
2018-04-07T22:01:31.487Z,8.57
2018-04-07T22:03:58.953Z,7.00
2018-04-07T22:06:27.392Z,7.23
2018-04-07T22:08:55.606Z,7.20
2018-04-07T22:11:23.066Z,8.00
2018-04-07T22:13:50.513Z,8.83
2018-04-07T22:16:17.964Z,7.40
2018-04-07T22:18:45.404Z,4.80
2018-04-07T22:21:12.867Z,4.73
2018-04-07T22:23:40.318Z,5.23
2018-04-07T22:26:07.776Z,7.47
2018-04-07T22:28:35.215Z,5.43
2018-04-07T22:31:03.446Z,7.43
2018-04-07T22:33:30.976Z,10.40
2018-04-07T22:35:58.447Z,7.40
2018-04-07T22:38:25.907Z,4.90
2018-04-07T22:40:53.363Z,8.23
2018-04-07T22:43:20.813Z,4.27
2018-04-07T22:45:48.273Z,6.80
2018-04-07T22:48:15.732Z,6.73
2018-04-07T22:50:43.183Z,14.53
2018-04-07T22:53:10.663Z,6.90
2018-04-07T22:55:38.105Z,9.30
2018-04-07T22:58:05.564Z,5.57
2018-04-07T23:00:33.018Z,5.10
2018-04-07T23:03:00.470Z,4.77
2018-04-07T23:05:27.913Z,9.57
2018-04-07T23:07:55.378Z,3.73
2018-04-07T23:10:22.825Z,8.73
2018-04-07T23:12:50.296Z,3.50
2018-04-07T23:15:17.736Z,4.50
2018-04-07T23:17:45.223Z,8.33
2018-04-07T23:20:12.669Z,7.13
2018-04-07T23:22:40.117Z,9.77
2018-04-07T23:25:07.588Z,10.80
2018-04-07T23:27:35.022Z,5.40
2018-04-07T23:30:02.465Z,6.20
2018-04-07T23:32:30.685Z,9.90
2018-04-07T23:34:58.135Z,7.03
2018-04-07T23:37:25.594Z,4.87
2018-04-07T23:39:53.049Z,7.43
2018-04-07T23:42:20.484Z,7.77
2018-04-07T23:44:48.044Z,8.17
2018-04-07T23:47:15.494Z,5.17
2018-04-07T23:49:43.700Z,7.93
2018-04-07T23:52:11.159Z,5.90
2018-04-07T23:54:38.627Z,10.40
2018-04-07T23:57:06.078Z,7.40
2018-04-07T23:59:33.519Z,6.67
